sensor_id;sensor_type;location;lat;lon;timestamp;pressure;altitude;pressure_sealevel;temperature;humidity
63111;BME280;49201;53.426;10.300;2023-01-08T00:01:40;100601.53;;;8.17;93.06
63111;BME280;49201;53.426;10.300;2023-01-08T00:04:05;100593.88;;;8.17;93.01
63111;BME280;49201;53.426;10.300;2023-01-08T00:06:31;100584.53;;;8.17;92.58
63111;BME280;49201;53.426;10.300;2023-01-08T00:08:56;100584.53;;;8.17;92.62
63111;BME280;49201;53.426;10.300;2023-01-08T00:11:22;100577.72;;;8.18;92.88
63111;BME280;49201;53.426;10.300;2023-01-08T00:13:47;100572.59;;;8.15;93.25
63111;BME280;49201;53.426;10.300;2023-01-08T00:16:15;100562.38;;;8.15;93.39
63111;BME280;49201;53.426;10.300;2023-01-08T00:18:41;100562.28;;;8.12;93.81
63111;BME280;49201;53.426;10.300;2023-01-08T00:21:07;100566.47;;;8.10;93.29
63111;BME280;49201;53.426;10.300;2023-01-08T00:23:33;100558.81;;;8.08;93.56
63111;BME280;49201;53.426;10.300;2023-01-08T00:26:03;100556.28;;;8.08;93.20
63111;BME280;49201;53.426;10.300;2023-01-08T00:28:29;100564.75;;;8.09;93.80
63111;BME280;49201;53.426;10.300;2023-01-08T00:30:55;100568.97;;;8.07;93.94
63111;BME280;49201;53.426;10.300;2023-01-08T00:33:20;100557.06;;;8.07;92.75
63111;BME280;49201;53.426;10.300;2023-01-08T00:35:46;100552.84;;;8.08;93.02
63111;BME280;49201;53.426;10.300;2023-01-08T00:38:11;100558.78;;;8.07;93.39
63111;BME280;49201;53.426;10.300;2023-01-08T00:40:37;100547.75;;;8.08;93.47
63111;BME280;49201;53.426;10.300;2023-01-08T00:43:05;100540.09;;;8.08;93.89
63111;BME280;49201;53.426;10.300;2023-01-08T00:45:30;100543.44;;;8.05;94.19
63111;BME280;49201;53.426;10.300;2023-01-08T00:47:56;100529.00;;;8.06;93.68
63111;BME280;49201;53.426;10.300;2023-01-08T00:50:21;100528.09;;;8.04;93.82
63111;BME280;49201;53.426;10.300;2023-01-08T00:52:46;100518.69;;;8.01;93.86
63111;BME280;49201;53.426;10.300;2023-01-08T00:55:12;100507.66;;;8.02;93.54
63111;BME280;49201;53.426;10.300;2023-01-08T00:57:38;100510.16;;;7.99;94.92
63111;BME280;49201;53.426;10.300;2023-01-08T01:00:06;100505.06;;;7.99;94.44
63111;BME280;49201;53.426;10.300;2023-01-08T01:02:34;100510.97;;;7.98;94.13
63111;BME280;49201;53.426;10.300;2023-01-08T01:04:59;100510.97;;;7.98;94.25
63111;BME280;49201;53.426;10.300;2023-01-08T01:07:25;100508.41;;;7.97;94.14
63111;BME280;49201;53.426;10.300;2023-01-08T01:09:50;100511.00;;;8.00;94.45
63111;BME280;49201;53.426;10.300;2023-01-08T01:12:15;100505.06;;;7.99;94.33
63111;BME280;49201;53.426;10.300;2023-01-08T01:14:41;100523.00;;;8.04;93.70
63111;BME280;49201;53.426;10.300;2023-01-08T01:17:06;100509.38;;;8.02;93.99
63111;BME280;49201;53.426;10.300;2023-01-08T01:19:32;100522.22;;;8.06;93.88
63111;BME280;49201;53.426;10.300;2023-01-08T01:21:57;100527.47;;;8.12;93.18
63111;BME280;49201;53.426;10.300;2023-01-08T01:24:23;100526.59;;;8.12;92.93
63111;BME280;49201;53.426;10.300;2023-01-08T01:26:52;100525.81;;;8.14;93.97
63111;BME280;49201;53.426;10.300;2023-01-08T01:29:20;100532.03;;;8.25;92.97
63111;BME280;49201;53.426;10.300;2023-01-08T01:31:46;100535.47;;;8.26;93.20
63111;BME280;49201;53.426;10.300;2023-01-08T01:34:11;100537.97;;;8.24;93.72
63111;BME280;49201;53.426;10.300;2023-01-08T01:36:36;100537.13;;;8.25;93.54
63111;BME280;49201;53.426;10.300;2023-01-08T01:39:02;100525.31;;;8.27;93.22
63111;BME280;49201;53.426;10.300;2023-01-08T01:43:57;100531.47;;;8.37;93.74
63111;BME280;49201;53.426;10.300;2023-01-08T01:46:37;100523.81;;;8.37;93.56
63111;BME280;49201;53.426;10.300;2023-01-08T01:49:09;100523.06;;;8.41;93.35
63111;BME280;49201;53.426;10.300;2023-01-08T01:51:37;100520.50;;;8.41;93.24
63111;BME280;49201;53.426;10.300;2023-01-08T01:54:08;100513.78;;;8.43;93.76
63111;BME280;49201;53.426;10.300;2023-01-08T01:56:35;100521.59;;;8.50;93.45
63111;BME280;49201;53.426;10.300;2023-01-08T01:59:02;100525.91;;;8.53;93.42
63111;BME280;49201;53.426;10.300;2023-01-08T02:01:29;100514.19;;;8.62;93.05
63111;BME280;49201;53.426;10.300;2023-01-08T02:03:55;100509.16;;;8.65;91.58
63111;BME280;49201;53.426;10.300;2023-01-08T02:11:55;100505.72;;;8.65;92.59
63111;BME280;49201;53.426;10.300;2023-01-08T02:14:44;100500.63;;;8.65;92.57
63111;BME280;49201;53.426;10.300;2023-01-08T02:17:20;100501.50;;;8.65;92.91
63111;BME280;49201;53.426;10.300;2023-01-08T02:19:52;100499.81;;;8.67;92.90
63111;BME280;49201;53.426;10.300;2023-01-08T02:25:36;100496.47;;;8.68;92.55
63111;BME280;49201;53.426;10.300;2023-01-08T02:28:08;100493.09;;;8.69;93.23
63111;BME280;49201;53.426;10.300;2023-01-08T02:30:35;100495.69;;;8.71;93.45
63111;BME280;49201;53.426;10.300;2023-01-08T02:33:01;100493.16;;;8.74;92.74
63111;BME280;49201;53.426;10.300;2023-01-08T02:35:39;100481.19;;;8.71;92.46
63111;BME280;49201;53.426;10.300;2023-01-08T02:38:05;100483.81;;;8.74;92.90
63111;BME280;49201;53.426;10.300;2023-01-08T02:40:41;100468.47;;;8.73;92.71
63111;BME280;49201;53.426;10.300;2023-01-08T02:43:17;100471.91;;;8.73;92.90
63111;BME280;49201;53.426;10.300;2023-01-08T02:45:49;100456.56;;;8.72;93.15
63111;BME280;49201;53.426;10.300;2023-01-08T02:51:09;100443.75;;;8.70;94.42
63111;BME280;49201;53.426;10.300;2023-01-08T02:53:40;100447.13;;;8.69;94.36
63111;BME280;49201;53.426;10.300;2023-01-08T02:56:11;100445.38;;;8.67;94.06
63111;BME280;49201;53.426;10.300;2023-01-08T02:58:38;100447.91;;;8.65;93.95
63111;BME280;49201;53.426;10.300;2023-01-08T03:01:07;100456.41;;;8.64;93.99
63111;BME280;49201;53.426;10.300;2023-01-08T03:03:34;100450.38;;;8.62;94.70
63111;BME280;49201;53.426;10.300;2023-01-08T03:06:03;100451.22;;;8.61;95.09
63111;BME280;49201;53.426;10.300;2023-01-08T03:08:33;100458.03;;;8.61;94.20
63111;BME280;49201;53.426;10.300;2023-01-08T03:11:03;100463.13;;;8.61;94.81
63111;BME280;49201;53.426;10.300;2023-01-08T03:16:03;100463.13;;;8.61;94.21
63111;BME280;49201;53.426;10.300;2023-01-08T03:18:36;100467.41;;;8.62;94.38
63111;BME280;49201;53.426;10.300;2023-01-08T03:21:05;100464.06;;;8.64;94.51
63111;BME280;49201;53.426;10.300;2023-01-08T03:23:32;100459.72;;;8.60;94.27
63111;BME280;49201;53.426;10.300;2023-01-08T03:26:00;100455.47;;;8.61;94.64
63111;BME280;49201;53.426;10.300;2023-01-08T03:28:29;100450.38;;;8.61;94.22
63111;BME280;49201;53.426;10.300;2023-01-08T03:30:58;100447.81;;;8.61;94.27
63111;BME280;49201;53.426;10.300;2023-01-08T03:33:26;100452.09;;;8.62;95.03
63111;BME280;49201;53.426;10.300;2023-01-08T03:35:54;100458.88;;;8.61;95.22
63111;BME280;49201;53.426;10.300;2023-01-08T03:38:27;100454.69;;;8.63;95.10
63111;BME280;49201;53.426;10.300;2023-01-08T03:40:56;100445.31;;;8.64;94.71
63111;BME280;49201;53.426;10.300;2023-01-08T03:43:24;100444.47;;;8.63;95.08
63111;BME280;49201;53.426;10.300;2023-01-08T03:45:55;100451.25;;;8.63;94.81
63111;BME280;49201;53.426;10.300;2023-01-08T03:48:22;100449.59;;;8.63;94.87
63111;BME280;49201;53.426;10.300;2023-01-08T03:50:49;100443.69;;;8.66;94.89
63111;BME280;49201;53.426;10.300;2023-01-08T03:53:15;100437.69;;;8.65;94.54
63111;BME280;49201;53.426;10.300;2023-01-08T03:55:41;100436.81;;;8.65;94.84
63111;BME280;49201;53.426;10.300;2023-01-08T03:58:06;100430.16;;;8.71;94.61
63111;BME280;49201;53.426;10.300;2023-01-08T04:00:32;100434.41;;;8.71;94.61
63111;BME280;49201;53.426;10.300;2023-01-08T04:02:57;100445.47;;;8.71;93.66
63111;BME280;49201;53.426;10.300;2023-01-08T04:05:23;100446.41;;;8.76;93.27
63111;BME280;49201;53.426;10.300;2023-01-08T04:07:48;100451.59;;;8.79;93.71
63111;BME280;49201;53.426;10.300;2023-01-08T04:10:14;100453.31;;;8.80;93.30
63111;BME280;49201;53.426;10.300;2023-01-08T04:12:42;100446.53;;;8.81;94.06
63111;BME280;49201;53.426;10.300;2023-01-08T04:15:07;100443.25;;;8.86;93.71
63111;BME280;49201;53.426;10.300;2023-01-08T04:17:33;100438.13;;;8.86;93.06
63111;BME280;49201;53.426;10.300;2023-01-08T04:19:58;100445.81;;;8.88;94.00
63111;BME280;49201;53.426;10.300;2023-01-08T04:22:24;100439.84;;;8.87;94.26
63111;BME280;49201;53.426;10.300;2023-01-08T04:24:49;100434.75;;;8.87;93.83
63111;BME280;49201;53.426;10.300;2023-01-08T04:27:15;100434.78;;;8.89;93.35
63111;BME280;49201;53.426;10.300;2023-01-08T04:29:40;100433.06;;;8.89;93.68
63111;BME280;49201;53.426;10.300;2023-01-08T04:32:06;100432.22;;;8.89;94.45
63111;BME280;49201;53.426;10.300;2023-01-08T04:34:31;100425.44;;;8.91;93.26
63111;BME280;49201;53.426;10.300;2023-01-08T04:36:56;100429.75;;;8.93;93.36
63111;BME280;49201;53.426;10.300;2023-01-08T04:39:22;100428.06;;;8.94;93.56
63111;BME280;49201;53.426;10.300;2023-01-08T04:41:47;100420.44;;;8.97;94.05
63111;BME280;49201;53.426;10.300;2023-01-08T04:44:13;100411.94;;;8.96;93.77
63111;BME280;49201;53.426;10.300;2023-01-08T04:46:38;100404.28;;;8.96;93.49
63111;BME280;49201;53.426;10.300;2023-01-08T04:49:04;100403.44;;;8.97;93.43
63111;BME280;49201;53.426;10.300;2023-01-08T04:51:29;100394.09;;;8.98;93.39
63111;BME280;49201;53.426;10.300;2023-01-08T04:53:54;100391.59;;;9.01;92.92
63111;BME280;49201;53.426;10.300;2023-01-08T04:56:20;100396.78;;;9.05;93.08
63111;BME280;49201;53.426;10.300;2023-01-08T04:58:45;100395.03;;;9.03;93.50
63111;BME280;49201;53.426;10.300;2023-01-08T05:01:19;100372.88;;;9.02;93.31
63111;BME280;49201;53.426;10.300;2023-01-08T05:03:45;100375.47;;;9.03;93.32
63111;BME280;49201;53.426;10.300;2023-01-08T05:06:10;100368.72;;;9.07;92.28
63111;BME280;49201;53.426;10.300;2023-01-08T05:08:36;100372.97;;;9.06;92.78
63111;BME280;49201;53.426;10.300;2023-01-08T05:11:03;100368.69;;;9.05;92.98
63111;BME280;49201;53.426;10.300;2023-01-08T05:13:29;100367.06;;;9.09;93.25
63111;BME280;49201;53.426;10.300;2023-01-08T05:15:58;100367.88;;;9.06;92.91
63111;BME280;49201;53.426;10.300;2023-01-08T05:18:25;100373.81;;;9.05;92.80
63111;BME280;49201;53.426;10.300;2023-01-08T05:20:50;100373.81;;;9.05;92.61
63111;BME280;49201;53.426;10.300;2023-01-08T05:23:16;100371.25;;;9.05;92.37
63111;BME280;49201;53.426;10.300;2023-01-08T05:25:41;100362.72;;;9.05;93.40
63111;BME280;49201;53.426;10.300;2023-01-08T05:28:06;100362.75;;;9.06;92.91
63111;BME280;49201;53.426;10.300;2023-01-08T05:30:32;100363.63;;;9.07;92.47
63111;BME280;49201;53.426;10.300;2023-01-08T05:32:57;100361.88;;;9.06;92.70
63111;BME280;49201;53.426;10.300;2023-01-08T05:35:23;100368.72;;;9.07;93.00
63111;BME280;49201;53.426;10.300;2023-01-08T05:37:48;100371.28;;;9.08;93.39
63111;BME280;49201;53.426;10.300;2023-01-08T05:40:13;100372.19;;;9.10;93.12
63111;BME280;49201;53.426;10.300;2023-01-08T05:42:39;100371.28;;;9.07;92.70
63111;BME280;49201;53.426;10.300;2023-01-08T05:45:05;100379.78;;;9.07;93.00
63111;BME280;49201;53.426;10.300;2023-01-08T05:47:32;100369.56;;;9.07;92.63
63111;BME280;49201;53.426;10.300;2023-01-08T05:49:58;100364.44;;;9.06;93.19
63111;BME280;49201;53.426;10.300;2023-01-08T05:52:24;100371.25;;;9.05;93.33
63111;BME280;49201;53.426;10.300;2023-01-08T05:54:49;100365.31;;;9.06;93.70
63111;BME280;49201;53.426;10.300;2023-01-08T05:57:14;100378.88;;;9.04;93.42
63111;BME280;49201;53.426;10.300;2023-01-08T05:59:40;100367.78;;;9.03;93.72
63111;BME280;49201;53.426;10.300;2023-01-08T06:02:07;100368.63;;;9.02;93.90
63111;BME280;49201;53.426;10.300;2023-01-08T06:04:33;100363.53;;;9.02;93.67
63111;BME280;49201;53.426;10.300;2023-01-08T06:06:58;100360.94;;;9.01;93.40
63111;BME280;49201;53.426;10.300;2023-01-08T06:09:23;100358.34;;;8.99;93.52
63111;BME280;49201;53.426;10.300;2023-01-08T06:11:49;100360.06;;;8.99;93.40
63111;BME280;49201;53.426;10.300;2023-01-08T06:14:15;100353.25;;;8.99;93.75
63111;BME280;49201;53.426;10.300;2023-01-08T06:16:42;100352.38;;;8.97;93.70
63111;BME280;49201;53.426;10.300;2023-01-08T06:19:09;100358.31;;;8.96;93.89
63111;BME280;49201;53.426;10.300;2023-01-08T06:21:34;100351.50;;;8.97;93.61
63111;BME280;49201;53.426;10.300;2023-01-08T06:24:00;100356.59;;;8.97;94.27
63111;BME280;49201;53.426;10.300;2023-01-08T06:26:25;100352.38;;;8.97;93.80
63111;BME280;49201;53.426;10.300;2023-01-08T06:28:51;100351.50;;;8.95;93.54
63111;BME280;49201;53.426;10.300;2023-01-08T06:31:16;100348.13;;;8.96;94.20
63111;BME280;49201;53.426;10.300;2023-01-08T06:33:41;100350.59;;;8.93;93.77
63111;BME280;49201;53.426;10.300;2023-01-08T06:36:07;100357.38;;;8.91;94.42
63111;BME280;49201;53.426;10.300;2023-01-08T06:38:33;100349.69;;;8.90;94.00
63111;BME280;49201;53.426;10.300;2023-01-08T06:41:06;100353.97;;;8.91;93.95
63111;BME280;49201;53.426;10.300;2023-01-08T06:43:33;100354.81;;;8.90;94.63
63111;BME280;49201;53.426;10.300;2023-01-08T06:45:59;100364.97;;;8.88;94.74
63111;BME280;49201;53.426;10.300;2023-01-08T06:48:25;100352.22;;;8.88;94.29
63111;BME280;49201;53.426;10.300;2023-01-08T06:50:51;100353.91;;;8.88;95.23
63111;BME280;49201;53.426;10.300;2023-01-08T06:53:16;100357.25;;;8.85;95.33
63111;BME280;49201;53.426;10.300;2023-01-08T06:55:42;100349.53;;;8.81;94.83
63111;BME280;49201;53.426;10.300;2023-01-08T06:58:08;100346.94;;;8.79;95.42
63111;BME280;49201;53.426;10.300;2023-01-08T07:00:36;100343.50;;;8.77;95.37
63111;BME280;49201;53.426;10.300;2023-01-08T07:03:02;100342.63;;;8.77;95.53
63111;BME280;49201;53.426;10.300;2023-01-08T07:05:28;100345.13;;;8.74;95.79
63111;BME280;49201;53.426;10.300;2023-01-08T07:07:53;100342.53;;;8.71;95.23
63111;BME280;49201;53.426;10.300;2023-01-08T07:10:19;100341.66;;;8.70;95.86
63111;BME280;49201;53.426;10.300;2023-01-08T07:12:44;100346.72;;;8.69;95.72
63111;BME280;49201;53.426;10.300;2023-01-08T07:15:10;100340.78;;;8.68;95.62
63111;BME280;49201;53.426;10.300;2023-01-08T07:17:36;100343.28;;;8.65;95.63
63111;BME280;49201;53.426;10.300;2023-01-08T07:20:01;100333.91;;;8.64;95.95
63111;BME280;49201;53.426;10.300;2023-01-08T07:22:27;100340.66;;;8.62;96.28
63111;BME280;49201;53.426;10.300;2023-01-08T07:24:52;100339.81;;;8.62;96.25
63111;BME280;49201;53.426;10.300;2023-01-08T07:27:18;100335.56;;;8.62;96.25
63111;BME280;49201;53.426;10.300;2023-01-08T07:29:43;100337.22;;;8.60;96.35
63111;BME280;49201;53.426;10.300;2023-01-08T07:32:09;100338.03;;;8.58;96.87
63111;BME280;49201;53.426;10.300;2023-01-08T07:34:34;100336.28;;;8.55;96.36
63111;BME280;49201;53.426;10.300;2023-01-08T07:37:01;100340.53;;;8.56;97.07
63111;BME280;49201;53.426;10.300;2023-01-08T07:39:26;100336.28;;;8.55;96.58
63111;BME280;49201;53.426;10.300;2023-01-08T07:41:52;100334.53;;;8.53;96.47
63111;BME280;49201;53.426;10.300;2023-01-08T07:44:17;100330.28;;;8.52;96.44
63111;BME280;49201;53.426;10.300;2023-01-08T07:46:43;100327.69;;;8.50;97.02
63111;BME280;49201;53.426;10.300;2023-01-08T07:49:08;100332.81;;;8.52;96.82
63111;BME280;49201;53.426;10.300;2023-01-08T07:51:34;100326.84;;;8.51;97.48
63111;BME280;49201;53.426;10.300;2023-01-08T07:54:00;100326.84;;;8.51;96.74
63111;BME280;49201;53.426;10.300;2023-01-08T07:56:25;100326.00;;;8.52;96.96
63111;BME280;49201;53.426;10.300;2023-01-08T07:58:51;100319.22;;;8.53;97.34
63111;BME280;49201;53.426;10.300;2023-01-08T08:01:16;100320.06;;;8.52;97.21
63111;BME280;49201;53.426;10.300;2023-01-08T08:03:42;100323.50;;;8.54;97.36
63111;BME280;49201;53.426;10.300;2023-01-08T08:06:08;100319.25;;;8.54;98.02
63111;BME280;49201;53.426;10.300;2023-01-08T08:08:33;100329.47;;;8.56;97.42
63111;BME280;49201;53.426;10.300;2023-01-08T08:10:59;100330.34;;;8.56;97.31
63111;BME280;49201;53.426;10.300;2023-01-08T08:13:25;100321.03;;;8.58;97.36
63111;BME280;49201;53.426;10.300;2023-01-08T08:15:50;100321.13;;;8.63;97.58
63111;BME280;49201;53.426;10.300;2023-01-08T08:18:16;100322.03;;;8.66;97.91
63111;BME280;49201;53.426;10.300;2023-01-08T08:20:41;100325.44;;;8.67;98.39
63111;BME280;49201;53.426;10.300;2023-01-08T08:23:09;100322.22;;;8.77;98.38
63111;BME280;49201;53.426;10.300;2023-01-08T08:25:35;100321.50;;;8.85;98.88
63111;BME280;49201;53.426;10.300;2023-01-08T08:28:02;100325.88;;;8.91;98.95
63111;BME280;49201;53.426;10.300;2023-01-08T08:30:29;100329.34;;;8.94;99.64
63111;BME280;49201;53.426;10.300;2023-01-08T08:32:58;100321.66;;;8.94;100.00
63111;BME280;49201;53.426;10.300;2023-01-08T08:35:24;100320.00;;;8.95;100.00
63111;BME280;49201;53.426;10.300;2023-01-08T08:37:49;100321.66;;;8.94;100.00
63111;BME280;49201;53.426;10.300;2023-01-08T08:40:15;100320.88;;;8.97;100.00
63111;BME280;49201;53.426;10.300;2023-01-08T08:42:40;100315.78;;;8.98;100.00
63111;BME280;49201;53.426;10.300;2023-01-08T08:45:06;100314.97;;;9.01;100.00
63111;BME280;49201;53.426;10.300;2023-01-08T08:47:32;100321.84;;;9.03;100.00
63111;BME280;49201;53.426;10.300;2023-01-08T08:49:57;100316.78;;;9.06;100.00
63111;BME280;49201;53.426;10.300;2023-01-08T08:52:23;100310.84;;;9.07;100.00
63111;BME280;49201;53.426;10.300;2023-01-08T08:54:48;100306.63;;;9.11;100.00
63111;BME280;49201;53.426;10.300;2023-01-08T08:57:14;100304.91;;;9.10;100.00
63111;BME280;49201;53.426;10.300;2023-01-08T08:59:39;100309.19;;;9.11;100.00
63111;BME280;49201;53.426;10.300;2023-01-08T09:02:05;100307.56;;;9.14;100.00
63111;BME280;49201;53.426;10.300;2023-01-08T09:04:32;100303.34;;;9.18;100.00
63111;BME280;49201;53.426;10.300;2023-01-08T09:06:58;100302.50;;;9.17;100.00
63111;BME280;49201;53.426;10.300;2023-01-08T09:09:24;100308.44;;;9.16;100.00
63111;BME280;49201;53.426;10.300;2023-01-08T09:11:51;100305.88;;;9.16;100.00
63111;BME280;49201;53.426;10.300;2023-01-08T09:14:17;100311.88;;;9.18;100.00
63111;BME280;49201;53.426;10.300;2023-01-08T09:16:42;100313.63;;;9.21;100.00
63111;BME280;49201;53.426;10.300;2023-01-08T09:19:08;100317.88;;;9.20;100.00
63111;BME280;49201;53.426;10.300;2023-01-08T09:21:35;100311.09;;;9.21;100.00
63111;BME280;49201;53.426;10.300;2023-01-08T09:24:00;100322.19;;;9.24;100.00
63111;BME280;49201;53.426;10.300;2023-01-08T09:26:26;100318.75;;;9.22;100.00
63111;BME280;49201;53.426;10.300;2023-01-08T09:28:53;100313.69;;;9.25;100.00
63111;BME280;49201;53.426;10.300;2023-01-08T09:31:18;100320.53;;;9.28;100.00
63111;BME280;49201;53.426;10.300;2023-01-08T09:33:46;100316.34;;;9.30;100.00
63111;BME280;49201;53.426;10.300;2023-01-08T09:36:12;100302.66;;;9.28;100.00
63111;BME280;49201;53.426;10.300;2023-01-08T09:38:37;100302.72;;;9.31;100.00
63111;BME280;49201;53.426;10.300;2023-01-08T09:41:07;100299.34;;;9.33;100.00
63111;BME280;49201;53.426;10.300;2023-01-08T09:43:36;100298.53;;;9.36;100.00
63111;BME280;49201;53.426;10.300;2023-01-08T09:46:05;100294.28;;;9.36;100.00
63111;BME280;49201;53.426;10.300;2023-01-08T09:48:34;100297.69;;;9.37;100.00
63111;BME280;49201;53.426;10.300;2023-01-08T09:51:01;100295.97;;;9.36;100.00
63111;BME280;49201;53.426;10.300;2023-01-08T09:53:27;100298.56;;;9.37;100.00
63111;BME280;49201;53.426;10.300;2023-01-08T09:56:16;100295.97;;;9.36;100.00
63111;BME280;49201;53.426;10.300;2023-01-08T09:58:45;100298.50;;;9.34;100.00
63111;BME280;49201;53.426;10.300;2023-01-08T10:01:14;100289.97;;;9.32;100.00
63111;BME280;49201;53.426;10.300;2023-01-08T10:03:47;100301.00;;;9.31;100.00
63111;BME280;49201;53.426;10.300;2023-01-08T10:06:15;100303.56;;;9.30;100.00
63111;BME280;49201;53.426;10.300;2023-01-08T10:08:41;100299.28;;;9.30;100.00
63111;BME280;49201;53.426;10.300;2023-01-08T10:11:08;100303.53;;;9.28;100.00
63111;BME280;49201;53.426;10.300;2023-01-08T10:13:37;100300.09;;;9.28;100.00
63111;BME280;49201;53.426;10.300;2023-01-08T10:16:08;100295.03;;;9.29;100.00
63111;BME280;49201;53.426;10.300;2023-01-08T10:18:35;100300.13;;;9.29;100.00
63111;BME280;49201;53.426;10.300;2023-01-08T10:21:02;100300.13;;;9.29;100.00
63111;BME280;49201;53.426;10.300;2023-01-08T10:23:27;100293.28;;;9.27;100.00
63111;BME280;49201;53.426;10.300;2023-01-08T10:28:25;100296.69;;;9.27;100.00
63111;BME280;49201;53.426;10.300;2023-01-08T10:30:52;100298.38;;;9.25;100.00
63111;BME280;49201;53.426;10.300;2023-01-08T10:33:23;100297.53;;;9.26;100.00
63111;BME280;49201;53.426;10.300;2023-01-08T10:36:03;100286.59;;;9.36;100.00
63111;BME280;49201;53.426;10.300;2023-01-08T10:38:32;100280.81;;;10.07;100.00
63111;BME280;49201;53.426;10.300;2023-01-08T10:41:09;100265.59;;;11.07;100.00
63111;BME280;49201;53.426;10.300;2023-01-08T10:46:11;100258.56;;;12.12;93.97
63111;BME280;49201;53.426;10.300;2023-01-08T10:48:44;100258.19;;;11.40;94.95
63111;BME280;49201;53.426;10.300;2023-01-08T10:51:31;100255.94;;;10.73;97.12
63111;BME280;49201;53.426;10.300;2023-01-08T10:54:00;100254.34;;;10.84;98.18
63111;BME280;49201;53.426;10.300;2023-01-08T10:56:38;100256.59;;;10.53;98.92
63111;BME280;49201;53.426;10.300;2023-01-08T10:59:04;100251.97;;;10.22;100.00
63111;BME280;49201;53.426;10.300;2023-01-08T11:01:30;100263.94;;;10.21;100.00
63111;BME280;49201;53.426;10.300;2023-01-08T11:04:02;100254.53;;;10.19;100.00
63111;BME280;49201;53.426;10.300;2023-01-08T11:06:35;100245.13;;;10.19;100.00
63111;BME280;49201;53.426;10.300;2023-01-08T11:09:18;100235.84;;;10.24;100.00
63111;BME280;49201;53.426;10.300;2023-01-08T11:11:45;100229.97;;;10.34;99.96
63111;BME280;49201;53.426;10.300;2023-01-08T11:16:42;100222.44;;;10.49;98.49
63111;BME280;49201;53.426;10.300;2023-01-08T11:19:16;100232.09;;;10.80;97.39
63111;BME280;49201;53.426;10.300;2023-01-08T11:21:54;100242.13;;;10.58;97.67
63111;BME280;49201;53.426;10.300;2023-01-08T11:24:24;100244.53;;;10.43;97.99
63111;BME280;49201;53.426;10.300;2023-01-08T11:26:53;100236.19;;;10.62;97.72
63111;BME280;49201;53.426;10.300;2023-01-08T11:29:30;100228.84;;;10.98;96.50
63111;BME280;49201;53.426;10.300;2023-01-08T11:32:23;100238.06;;;10.78;95.23
63111;BME280;49201;53.426;10.300;2023-01-08T11:35:03;100225.13;;;10.61;95.89
63111;BME280;49201;53.426;10.300;2023-01-08T11:37:38;100231.81;;;10.50;96.63
63111;BME280;49201;53.426;10.300;2023-01-08T11:40:12;100221.53;;;10.44;96.63
63111;BME280;49201;53.426;10.300;2023-01-08T11:51:21;100217.34;;;10.54;97.44
63111;BME280;49201;53.426;10.300;2023-01-08T11:53:31;100201.91;;;10.46;96.75
63111;BME280;49201;53.426;10.300;2023-01-08T11:58:52;100202.09;;;10.66;96.36
63111;BME280;49201;53.426;10.300;2023-01-08T12:02:07;100189.25;;;10.58;96.59
63111;BME280;49201;53.426;10.300;2023-01-08T12:10:14;100186.09;;;10.89;94.85
63111;BME280;49201;53.426;10.300;2023-01-08T12:13:02;100183.06;;;11.52;93.90
63111;BME280;49201;53.426;10.300;2023-01-08T12:15:53;100171.41;;;12.69;88.82
63111;BME280;49201;53.426;10.300;2023-01-08T12:18:45;100175.66;;;13.01;85.93
63111;BME280;49201;53.426;10.300;2023-01-08T12:30:08;100159.81;;;15.20;71.96
63111;BME280;49201;53.426;10.300;2023-01-08T12:32:46;100151.50;;;14.91;72.92
63111;BME280;49201;53.426;10.300;2023-01-08T12:35:19;100147.22;;;15.69;70.92
63111;BME280;49201;53.426;10.300;2023-01-08T12:37:54;100143.72;;;15.76;68.56
63111;BME280;49201;53.426;10.300;2023-01-08T12:40:46;100131.56;;;15.85;68.46
63111;BME280;49201;53.426;10.300;2023-01-08T12:43:17;100137.72;;;14.95;71.67
63111;BME280;49201;53.426;10.300;2023-01-08T12:45:47;100140.53;;;14.70;72.17
63111;BME280;49201;53.426;10.300;2023-01-08T12:48:16;100146.34;;;13.69;77.25
63111;BME280;49201;53.426;10.300;2023-01-08T12:56:10;100131.13;;;12.82;81.46
63111;BME280;49201;53.426;10.300;2023-01-08T13:01:33;100117.84;;;14.01;77.36
63111;BME280;49201;53.426;10.300;2023-01-08T13:04:00;100113.75;;;13.62;77.74
63111;BME280;49201;53.426;10.300;2023-01-08T13:06:26;100104.25;;;13.82;76.47
63111;BME280;49201;53.426;10.300;2023-01-08T13:08:54;100111.06;;;13.89;75.67
63111;BME280;49201;53.426;10.300;2023-01-08T13:11:31;100114.50;;;13.85;74.02
63111;BME280;49201;53.426;10.300;2023-01-08T13:14:03;100106.47;;;14.35;70.95
63111;BME280;49201;53.426;10.300;2023-01-08T13:16:43;100101.97;;;14.61;69.56
63111;BME280;49201;53.426;10.300;2023-01-08T13:19:23;100095.84;;;14.74;67.15
63111;BME280;49201;53.426;10.300;2023-01-08T13:21:52;100103.34;;;14.95;66.20
63111;BME280;49201;53.426;10.300;2023-01-08T13:29:40;100091.00;;;15.24;65.20
63111;BME280;49201;53.426;10.300;2023-01-08T13:32:42;100086.84;;;15.12;66.08
63111;BME280;49201;53.426;10.300;2023-01-08T13:37:46;100079.91;;;15.17;64.35
63111;BME280;49201;53.426;10.300;2023-01-08T13:40:47;100076.84;;;15.58;63.40
63111;BME280;49201;53.426;10.300;2023-01-08T13:43:18;100074.88;;;15.05;63.11
63111;BME280;49201;53.426;10.300;2023-01-08T13:48:23;100062.94;;;15.66;62.19
63111;BME280;49201;53.426;10.300;2023-01-08T13:50:50;100055.28;;;15.62;62.15
63111;BME280;49201;53.426;10.300;2023-01-08T13:53:16;100063.41;;;15.30;62.97
63111;BME280;49201;53.426;10.300;2023-01-08T13:55:53;100063.56;;;15.18;63.03
63111;BME280;49201;53.426;10.300;2023-01-08T13:58:44;100064.56;;;15.04;63.43
63111;BME280;49201;53.426;10.300;2023-01-08T14:01:11;100062.25;;;14.83;62.62